sensor_id;sensor_type;location;lat;lon;timestamp;temperature;humidity
14577;DHT22;7375;46.072;14.470;2022-07-18T00:00:36;25.30;61.30
14577;DHT22;7375;46.072;14.470;2022-07-18T00:03:03;25.30;61.30
14577;DHT22;7375;46.072;14.470;2022-07-18T00:05:31;25.30;61.30
14577;DHT22;7375;46.072;14.470;2022-07-18T00:07:58;25.20;61.30
14577;DHT22;7375;46.072;14.470;2022-07-18T00:10:25;25.20;61.30
14577;DHT22;7375;46.072;14.470;2022-07-18T00:12:54;25.20;61.30
14577;DHT22;7375;46.072;14.470;2022-07-18T00:15:21;25.20;61.30
14577;DHT22;7375;46.072;14.470;2022-07-18T00:17:50;25.20;61.40
14577;DHT22;7375;46.072;14.470;2022-07-18T00:20:17;25.20;61.40
14577;DHT22;7375;46.072;14.470;2022-07-18T00:22:45;25.20;61.40
14577;DHT22;7375;46.072;14.470;2022-07-18T00:25:12;25.20;61.40
14577;DHT22;7375;46.072;14.470;2022-07-18T00:27:39;25.20;61.40
14577;DHT22;7375;46.072;14.470;2022-07-18T00:30:06;25.20;61.40
14577;DHT22;7375;46.072;14.470;2022-07-18T00:32:34;25.20;61.40
14577;DHT22;7375;46.072;14.470;2022-07-18T00:35:00;25.20;61.50
14577;DHT22;7375;46.072;14.470;2022-07-18T00:37:27;25.20;61.50
14577;DHT22;7375;46.072;14.470;2022-07-18T00:39:56;25.20;61.60
14577;DHT22;7375;46.072;14.470;2022-07-18T00:42:22;25.20;61.50
14577;DHT22;7375;46.072;14.470;2022-07-18T00:44:51;25.20;61.60
14577;DHT22;7375;46.072;14.470;2022-07-18T00:47:18;25.20;61.60
14577;DHT22;7375;46.072;14.470;2022-07-18T00:49:48;25.20;61.60
14577;DHT22;7375;46.072;14.470;2022-07-18T00:52:15;25.20;61.70
14577;DHT22;7375;46.072;14.470;2022-07-18T00:54:42;25.20;61.70
14577;DHT22;7375;46.072;14.470;2022-07-18T00:57:10;25.10;61.60
14577;DHT22;7375;46.072;14.470;2022-07-18T00:59:37;25.10;61.70
14577;DHT22;7375;46.072;14.470;2022-07-18T01:02:22;25.10;61.70
14577;DHT22;7375;46.072;14.470;2022-07-18T01:04:49;25.10;61.70
14577;DHT22;7375;46.072;14.470;2022-07-18T01:07:16;25.10;61.70
14577;DHT22;7375;46.072;14.470;2022-07-18T01:09:43;25.10;61.70
14577;DHT22;7375;46.072;14.470;2022-07-18T01:12:11;25.10;61.80
14577;DHT22;7375;46.072;14.470;2022-07-18T01:14:38;25.10;61.80
14577;DHT22;7375;46.072;14.470;2022-07-18T01:17:11;25.10;61.80
14577;DHT22;7375;46.072;14.470;2022-07-18T01:19:38;25.10;61.80
14577;DHT22;7375;46.072;14.470;2022-07-18T01:22:06;25.10;61.90
14577;DHT22;7375;46.072;14.470;2022-07-18T01:24:33;25.00;61.80
14577;DHT22;7375;46.072;14.470;2022-07-18T01:27:00;25.00;61.80
14577;DHT22;7375;46.072;14.470;2022-07-18T01:29:27;25.00;61.80
14577;DHT22;7375;46.072;14.470;2022-07-18T01:31:53;25.00;61.90
14577;DHT22;7375;46.072;14.470;2022-07-18T01:34:20;25.00;61.90
14577;DHT22;7375;46.072;14.470;2022-07-18T01:36:47;25.00;61.90
14577;DHT22;7375;46.072;14.470;2022-07-18T01:39:15;25.00;61.90
14577;DHT22;7375;46.072;14.470;2022-07-18T01:41:42;25.00;62.00
14577;DHT22;7375;46.072;14.470;2022-07-18T01:44:12;25.00;62.00
14577;DHT22;7375;46.072;14.470;2022-07-18T01:46:38;25.00;62.00
14577;DHT22;7375;46.072;14.470;2022-07-18T01:49:05;25.00;62.10
14577;DHT22;7375;46.072;14.470;2022-07-18T01:51:32;24.90;62.00
14577;DHT22;7375;46.072;14.470;2022-07-18T01:53:59;25.00;62.10
14577;DHT22;7375;46.072;14.470;2022-07-18T01:56:28;24.90;62.10
14577;DHT22;7375;46.072;14.470;2022-07-18T01:58:58;24.90;62.10
14577;DHT22;7375;46.072;14.470;2022-07-18T02:01:27;24.90;62.10
14577;DHT22;7375;46.072;14.470;2022-07-18T02:03:54;24.90;62.10
14577;DHT22;7375;46.072;14.470;2022-07-18T02:06:23;24.90;62.10
14577;DHT22;7375;46.072;14.470;2022-07-18T02:08:50;24.90;62.10
14577;DHT22;7375;46.072;14.470;2022-07-18T02:11:17;24.90;62.20
14577;DHT22;7375;46.072;14.470;2022-07-18T02:13:45;24.90;62.80
14577;DHT22;7375;46.072;14.470;2022-07-18T02:16:12;24.90;62.20
14577;DHT22;7375;46.072;14.470;2022-07-18T02:18:39;24.90;62.20
14577;DHT22;7375;46.072;14.470;2022-07-18T02:21:06;24.90;62.20
14577;DHT22;7375;46.072;14.470;2022-07-18T02:23:32;24.90;62.30
14577;DHT22;7375;46.072;14.470;2022-07-18T02:25:59;24.90;62.30
14577;DHT22;7375;46.072;14.470;2022-07-18T02:28:26;24.80;62.20
14577;DHT22;7375;46.072;14.470;2022-07-18T02:30:54;24.80;62.20
14577;DHT22;7375;46.072;14.470;2022-07-18T02:33:24;24.80;62.30
14577;DHT22;7375;46.072;14.470;2022-07-18T02:35:51;24.80;62.30
14577;DHT22;7375;46.072;14.470;2022-07-18T02:38:18;24.80;62.30
14577;DHT22;7375;46.072;14.470;2022-07-18T02:40:45;24.80;62.30
14577;DHT22;7375;46.072;14.470;2022-07-18T02:43:11;24.80;62.30
14577;DHT22;7375;46.072;14.470;2022-07-18T02:45:38;24.80;62.40
14577;DHT22;7375;46.072;14.470;2022-07-18T02:48:06;24.80;62.40
14577;DHT22;7375;46.072;14.470;2022-07-18T02:50:33;24.80;62.40
14577;DHT22;7375;46.072;14.470;2022-07-18T02:53:00;24.80;62.40
14577;DHT22;7375;46.072;14.470;2022-07-18T02:55:27;24.80;62.40
14577;DHT22;7375;46.072;14.470;2022-07-18T02:57:54;24.80;62.50
14577;DHT22;7375;46.072;14.470;2022-07-18T03:00:21;24.80;62.50
14577;DHT22;7375;46.072;14.470;2022-07-18T03:02:47;24.80;62.50
14577;DHT22;7375;46.072;14.470;2022-07-18T03:05:16;24.80;62.50
14577;DHT22;7375;46.072;14.470;2022-07-18T03:07:42;24.80;62.50
14577;DHT22;7375;46.072;14.470;2022-07-18T03:10:09;24.70;62.50
14577;DHT22;7375;46.072;14.470;2022-07-18T03:12:36;24.70;62.50
14577;DHT22;7375;46.072;14.470;2022-07-18T03:15:03;24.70;62.50
14577;DHT22;7375;46.072;14.470;2022-07-18T03:17:30;24.70;62.50
14577;DHT22;7375;46.072;14.470;2022-07-18T03:19:57;24.70;62.50
14577;DHT22;7375;46.072;14.470;2022-07-18T03:22:27;24.70;62.60
14577;DHT22;7375;46.072;14.470;2022-07-18T03:24:54;24.70;62.60
14577;DHT22;7375;46.072;14.470;2022-07-18T03:27:21;24.70;62.60
14577;DHT22;7375;46.072;14.470;2022-07-18T03:29:48;24.70;62.60
14577;DHT22;7375;46.072;14.470;2022-07-18T03:32:15;24.70;62.60
14577;DHT22;7375;46.072;14.470;2022-07-18T03:34:42;24.70;62.60
14577;DHT22;7375;46.072;14.470;2022-07-18T03:37:09;24.70;62.70
14577;DHT22;7375;46.072;14.470;2022-07-18T03:39:37;24.70;62.70
14577;DHT22;7375;46.072;14.470;2022-07-18T03:42:04;24.70;62.70
14577;DHT22;7375;46.072;14.470;2022-07-18T03:44:30;24.70;62.70
14577;DHT22;7375;46.072;14.470;2022-07-18T03:46:57;24.70;62.70
14577;DHT22;7375;46.072;14.470;2022-07-18T03:49:24;24.70;62.70
14577;DHT22;7375;46.072;14.470;2022-07-18T03:51:51;24.70;62.70
14577;DHT22;7375;46.072;14.470;2022-07-18T03:54:20;24.60;62.60
14577;DHT22;7375;46.072;14.470;2022-07-18T03:56:49;24.70;62.70
14577;DHT22;7375;46.072;14.470;2022-07-18T03:59:15;24.60;62.60
14577;DHT22;7375;46.072;14.470;2022-07-18T04:01:45;24.60;62.60
14577;DHT22;7375;46.072;14.470;2022-07-18T04:04:11;24.60;62.60
14577;DHT22;7375;46.072;14.470;2022-07-18T04:06:38;24.60;62.60
14577;DHT22;7375;46.072;14.470;2022-07-18T04:09:05;24.60;62.60
14577;DHT22;7375;46.072;14.470;2022-07-18T04:11:32;24.60;62.70
14577;DHT22;7375;46.072;14.470;2022-07-18T04:14:00;24.60;62.70
14577;DHT22;7375;46.072;14.470;2022-07-18T04:16:27;24.60;62.70
14577;DHT22;7375;46.072;14.470;2022-07-18T04:18:54;24.60;62.70
14577;DHT22;7375;46.072;14.470;2022-07-18T04:21:20;24.60;62.70
14577;DHT22;7375;46.072;14.470;2022-07-18T04:23:47;24.60;62.70
14577;DHT22;7375;46.072;14.470;2022-07-18T04:26:14;24.60;62.70
14577;DHT22;7375;46.072;14.470;2022-07-18T04:28:41;24.60;62.70
14577;DHT22;7375;46.072;14.470;2022-07-18T04:31:09;24.60;62.60
14577;DHT22;7375;46.072;14.470;2022-07-18T04:33:36;24.60;62.70
14577;DHT22;7375;46.072;14.470;2022-07-18T04:36:06;24.60;62.60
14577;DHT22;7375;46.072;14.470;2022-07-18T04:38:32;24.60;62.70
14577;DHT22;7375;46.072;14.470;2022-07-18T04:41:02;24.60;62.60
14577;DHT22;7375;46.072;14.470;2022-07-18T04:43:29;24.60;62.80
14577;DHT22;7375;46.072;14.470;2022-07-18T04:45:56;24.60;62.60
14577;DHT22;7375;46.072;14.470;2022-07-18T04:48:24;24.60;62.60
14577;DHT22;7375;46.072;14.470;2022-07-18T04:50:54;24.60;62.60
14577;DHT22;7375;46.072;14.470;2022-07-18T04:53:24;24.70;62.70
14577;DHT22;7375;46.072;14.470;2022-07-18T04:55:50;24.60;63.20
14577;DHT22;7375;46.072;14.470;2022-07-18T04:58:17;24.70;62.70
14577;DHT22;7375;46.072;14.470;2022-07-18T05:00:44;24.70;62.60
14577;DHT22;7375;46.072;14.470;2022-07-18T05:03:11;24.70;62.60
14577;DHT22;7375;46.072;14.470;2022-07-18T05:05:41;24.70;62.60
14577;DHT22;7375;46.072;14.470;2022-07-18T05:08:08;24.70;62.60
14577;DHT22;7375;46.072;14.470;2022-07-18T05:10:37;24.70;62.60
14577;DHT22;7375;46.072;14.470;2022-07-18T05:13:04;24.70;62.60
14577;DHT22;7375;46.072;14.470;2022-07-18T05:15:31;24.70;62.50
14577;DHT22;7375;46.072;14.470;2022-07-18T05:17:57;24.70;62.40
14577;DHT22;7375;46.072;14.470;2022-07-18T05:20:25;24.80;62.50
14577;DHT22;7375;46.072;14.470;2022-07-18T05:22:53;24.70;62.40
14577;DHT22;7375;46.072;14.470;2022-07-18T05:25:20;24.80;62.40
14577;DHT22;7375;46.072;14.470;2022-07-18T05:27:48;24.80;62.40
14577;DHT22;7375;46.072;14.470;2022-07-18T05:30:15;24.80;62.30
14577;DHT22;7375;46.072;14.470;2022-07-18T05:32:43;24.80;62.20
14577;DHT22;7375;46.072;14.470;2022-07-18T05:35:10;25.00;62.00
14577;DHT22;7375;46.072;14.470;2022-07-18T05:37:37;25.20;61.60
14577;DHT22;7375;46.072;14.470;2022-07-18T05:40:07;25.50;61.00
14577;DHT22;7375;46.072;14.470;2022-07-18T05:42:34;25.60;60.40
14577;DHT22;7375;46.072;14.470;2022-07-18T05:45:01;25.70;60.00
14577;DHT22;7375;46.072;14.470;2022-07-18T05:47:28;25.80;59.90
14577;DHT22;7375;46.072;14.470;2022-07-18T05:49:55;25.90;59.80
14577;DHT22;7375;46.072;14.470;2022-07-18T05:52:21;26.00;59.50
14577;DHT22;7375;46.072;14.470;2022-07-18T05:54:48;26.20;59.10
14577;DHT22;7375;46.072;14.470;2022-07-18T05:57:16;26.40;58.80
14577;DHT22;7375;46.072;14.470;2022-07-18T05:59:43;26.60;58.40
14577;DHT22;7375;46.072;14.470;2022-07-18T06:02:10;26.70;58.00
14577;DHT22;7375;46.072;14.470;2022-07-18T06:04:37;26.90;57.70
14577;DHT22;7375;46.072;14.470;2022-07-18T06:07:03;27.00;57.20
14577;DHT22;7375;46.072;14.470;2022-07-18T06:09:30;27.20;56.90
14577;DHT22;7375;46.072;14.470;2022-07-18T06:11:57;27.30;56.50
14577;DHT22;7375;46.072;14.470;2022-07-18T06:14:26;27.50;56.30
14577;DHT22;7375;46.072;14.470;2022-07-18T06:16:53;27.60;56.00
14577;DHT22;7375;46.072;14.470;2022-07-18T06:19:19;27.60;55.70
14577;DHT22;7375;46.072;14.470;2022-07-18T06:21:47;27.70;55.50
14577;DHT22;7375;46.072;14.470;2022-07-18T06:24:13;27.80;55.30
14577;DHT22;7375;46.072;14.470;2022-07-18T06:26:41;28.00;55.10
14577;DHT22;7375;46.072;14.470;2022-07-18T06:29:08;28.10;54.70
14577;DHT22;7375;46.072;14.470;2022-07-18T06:31:37;28.20;54.40
14577;DHT22;7375;46.072;14.470;2022-07-18T06:34:04;28.30;54.20
14577;DHT22;7375;46.072;14.470;2022-07-18T06:36:31;28.40;54.00
14577;DHT22;7375;46.072;14.470;2022-07-18T06:38:58;28.40;53.80
14577;DHT22;7375;46.072;14.470;2022-07-18T06:41:25;28.50;53.70
14577;DHT22;7375;46.072;14.470;2022-07-18T06:43:52;28.50;53.50
14577;DHT22;7375;46.072;14.470;2022-07-18T06:46:18;28.60;53.30
14577;DHT22;7375;46.072;14.470;2022-07-18T06:48:47;28.70;53.10
14577;DHT22;7375;46.072;14.470;2022-07-18T06:51:17;28.70;53.00
14577;DHT22;7375;46.072;14.470;2022-07-18T06:53:43;28.80;53.00
14577;DHT22;7375;46.072;14.470;2022-07-18T06:56:10;28.80;52.90
14577;DHT22;7375;46.072;14.470;2022-07-18T06:58:37;28.80;52.80
14577;DHT22;7375;46.072;14.470;2022-07-18T07:01:04;28.90;52.70
14577;DHT22;7375;46.072;14.470;2022-07-18T07:03:32;29.00;52.60
14577;DHT22;7375;46.072;14.470;2022-07-18T07:06:00;28.90;52.50
14577;DHT22;7375;46.072;14.470;2022-07-18T07:08:27;29.00;52.50
14577;DHT22;7375;46.072;14.470;2022-07-18T07:10:53;29.20;52.20
14577;DHT22;7375;46.072;14.470;2022-07-18T07:13:20;29.40;51.90
14577;DHT22;7375;46.072;14.470;2022-07-18T07:15:47;29.40;51.70
14577;DHT22;7375;46.072;14.470;2022-07-18T07:18:14;29.40;51.60
14577;DHT22;7375;46.072;14.470;2022-07-18T07:20:41;29.20;51.90
14577;DHT22;7375;46.072;14.470;2022-07-18T07:23:09;29.10;52.20
14577;DHT22;7375;46.072;14.470;2022-07-18T07:25:36;29.10;52.20
14577;DHT22;7375;46.072;14.470;2022-07-18T07:28:03;29.10;52.20
14577;DHT22;7375;46.072;14.470;2022-07-18T07:30:30;29.20;52.20
14577;DHT22;7375;46.072;14.470;2022-07-18T07:32:57;29.20;52.00
14577;DHT22;7375;46.072;14.470;2022-07-18T07:35:24;29.20;52.10
14577;DHT22;7375;46.072;14.470;2022-07-18T07:37:52;29.20;52.00
14577;DHT22;7375;46.072;14.470;2022-07-18T07:40:20;29.20;52.20
14577;DHT22;7375;46.072;14.470;2022-07-18T07:42:47;29.20;52.00
14577;DHT22;7375;46.072;14.470;2022-07-18T07:45:14;29.30;52.00
14577;DHT22;7375;46.072;14.470;2022-07-18T07:47:41;29.40;51.80
14577;DHT22;7375;46.072;14.470;2022-07-18T07:50:09;29.40;51.70
14577;DHT22;7375;46.072;14.470;2022-07-18T07:52:39;29.50;51.70
14577;DHT22;7375;46.072;14.470;2022-07-18T07:55:06;29.50;51.60
14577;DHT22;7375;46.072;14.470;2022-07-18T07:57:35;29.50;51.50
14577;DHT22;7375;46.072;14.470;2022-07-18T08:00:03;29.50;51.50
14577;DHT22;7375;46.072;14.470;2022-07-18T08:02:36;29.60;51.40
14577;DHT22;7375;46.072;14.470;2022-07-18T08:05:03;29.60;51.40
14577;DHT22;7375;46.072;14.470;2022-07-18T08:07:30;29.60;51.40
14577;DHT22;7375;46.072;14.470;2022-07-18T08:09:57;29.60;51.40
14577;DHT22;7375;46.072;14.470;2022-07-18T08:12:26;29.60;51.40
14577;DHT22;7375;46.072;14.470;2022-07-18T08:14:54;29.60;51.40
14577;DHT22;7375;46.072;14.470;2022-07-18T08:17:21;29.60;51.50
14577;DHT22;7375;46.072;14.470;2022-07-18T08:19:48;29.60;51.40
14577;DHT22;7375;46.072;14.470;2022-07-18T08:22:15;29.60;51.50
14577;DHT22;7375;46.072;14.470;2022-07-18T08:24:43;29.50;51.50
14577;DHT22;7375;46.072;14.470;2022-07-18T08:27:09;29.50;51.60
14577;DHT22;7375;46.072;14.470;2022-07-18T08:29:37;29.40;51.70
14577;DHT22;7375;46.072;14.470;2022-07-18T08:32:05;29.40;51.70
14577;DHT22;7375;46.072;14.470;2022-07-18T08:34:32;29.40;51.80
14577;DHT22;7375;46.072;14.470;2022-07-18T08:36:58;29.40;51.80
14577;DHT22;7375;46.072;14.470;2022-07-18T08:39:25;29.40;51.90
14577;DHT22;7375;46.072;14.470;2022-07-18T08:41:52;29.40;51.80
14577;DHT22;7375;46.072;14.470;2022-07-18T08:44:21;29.40;51.80
14577;DHT22;7375;46.072;14.470;2022-07-18T08:46:48;29.40;52.40
14577;DHT22;7375;46.072;14.470;2022-07-18T08:49:17;29.40;51.90
14577;DHT22;7375;46.072;14.470;2022-07-18T08:51:44;29.40;51.90
14577;DHT22;7375;46.072;14.470;2022-07-18T08:54:11;29.30;51.90
14577;DHT22;7375;46.072;14.470;2022-07-18T08:56:38;29.30;51.90
14577;DHT22;7375;46.072;14.470;2022-07-18T08:59:08;29.30;52.00
14577;DHT22;7375;46.072;14.470;2022-07-18T09:01:35;29.30;51.90
14577;DHT22;7375;46.072;14.470;2022-07-18T09:04:02;29.30;52.00
14577;DHT22;7375;46.072;14.470;2022-07-18T09:06:48;29.30;52.10
14577;DHT22;7375;46.072;14.470;2022-07-18T09:09:15;29.20;52.20
14577;DHT22;7375;46.072;14.470;2022-07-18T09:11:51;29.20;52.20
14577;DHT22;7375;46.072;14.470;2022-07-18T09:14:28;29.20;52.20
14577;DHT22;7375;46.072;14.470;2022-07-18T09:16:59;29.20;52.20
14577;DHT22;7375;46.072;14.470;2022-07-18T09:19:29;29.10;52.20
14577;DHT22;7375;46.072;14.470;2022-07-18T09:22:03;29.10;52.20
14577;DHT22;7375;46.072;14.470;2022-07-18T09:24:48;29.10;52.30
14577;DHT22;7375;46.072;14.470;2022-07-18T09:27:22;29.10;52.30
14577;DHT22;7375;46.072;14.470;2022-07-18T09:29:49;29.10;52.30
14577;DHT22;7375;46.072;14.470;2022-07-18T09:32:25;29.10;52.30
14577;DHT22;7375;46.072;14.470;2022-07-18T09:34:51;29.10;52.30
14577;DHT22;7375;46.072;14.470;2022-07-18T09:37:20;29.10;52.30
14577;DHT22;7375;46.072;14.470;2022-07-18T09:39:47;29.10;52.40
14577;DHT22;7375;46.072;14.470;2022-07-18T09:42:15;29.10;52.40
14577;DHT22;7375;46.072;14.470;2022-07-18T09:44:42;29.10;52.50
14577;DHT22;7375;46.072;14.470;2022-07-18T09:47:11;29.00;52.40
14577;DHT22;7375;46.072;14.470;2022-07-18T09:49:38;29.00;52.50
14577;DHT22;7375;46.072;14.470;2022-07-18T09:52:08;29.00;52.50
14577;DHT22;7375;46.072;14.470;2022-07-18T09:54:37;29.00;52.60
14577;DHT22;7375;46.072;14.470;2022-07-18T09:57:04;28.90;52.70
14577;DHT22;7375;46.072;14.470;2022-07-18T09:59:31;28.90;52.70
14577;DHT22;7375;46.072;14.470;2022-07-18T10:02:02;28.90;52.90
14577;DHT22;7375;46.072;14.470;2022-07-18T10:04:28;28.80;52.90
14577;DHT22;7375;46.072;14.470;2022-07-18T10:06:55;28.80;53.10
14577;DHT22;7375;46.072;14.470;2022-07-18T10:09:22;28.70;53.10
14577;DHT22;7375;46.072;14.470;2022-07-18T10:11:54;28.70;53.20
14577;DHT22;7375;46.072;14.470;2022-07-18T10:14:21;28.70;53.30
14577;DHT22;7375;46.072;14.470;2022-07-18T10:16:48;28.60;53.40
14577;DHT22;7375;46.072;14.470;2022-07-18T10:19:16;28.60;53.50
14577;DHT22;7375;46.072;14.470;2022-07-18T10:21:44;28.50;53.50
14577;DHT22;7375;46.072;14.470;2022-07-18T10:24:13;28.50;53.60
14577;DHT22;7375;46.072;14.470;2022-07-18T10:26:42;28.50;53.70
14577;DHT22;7375;46.072;14.470;2022-07-18T10:29:12;28.50;53.80
14577;DHT22;7375;46.072;14.470;2022-07-18T10:31:40;28.40;53.90
14577;DHT22;7375;46.072;14.470;2022-07-18T10:34:26;28.40;54.00
14577;DHT22;7375;46.072;14.470;2022-07-18T10:37:06;28.40;54.10
14577;DHT22;7375;46.072;14.470;2022-07-18T10:39:34;28.30;54.10
14577;DHT22;7375;46.072;14.470;2022-07-18T10:42:16;28.30;54.20
14577;DHT22;7375;46.072;14.470;2022-07-18T10:44:45;28.30;54.30
14577;DHT22;7375;46.072;14.470;2022-07-18T10:47:13;28.20;54.30
14577;DHT22;7375;46.072;14.470;2022-07-18T10:50:02;28.20;54.40
14577;DHT22;7375;46.072;14.470;2022-07-18T10:55:31;28.20;54.50
14577;DHT22;7375;46.072;14.470;2022-07-18T10:58:20;28.10;54.60
14577;DHT22;7375;46.072;14.470;2022-07-18T11:00:50;28.10;54.60
14577;DHT22;7375;46.072;14.470;2022-07-18T11:03:22;28.10;54.70
14577;DHT22;7375;46.072;14.470;2022-07-18T11:05:51;28.10;54.80
14577;DHT22;7375;46.072;14.470;2022-07-18T11:08:19;28.00;54.80
14577;DHT22;7375;46.072;14.470;2022-07-18T11:11:03;28.00;54.80
14577;DHT22;7375;46.072;14.470;2022-07-18T11:13:30;28.00;54.90
14577;DHT22;7375;46.072;14.470;2022-07-18T11:16:00;28.00;55.00
14577;DHT22;7375;46.072;14.470;2022-07-18T11:18:27;27.90;54.90
14577;DHT22;7375;46.072;14.470;2022-07-18T11:20:54;27.90;55.00
14577;DHT22;7375;46.072;14.470;2022-07-18T11:23:22;27.90;55.10
14577;DHT22;7375;46.072;14.470;2022-07-18T11:25:50;27.90;55.10
14577;DHT22;7375;46.072;14.470;2022-07-18T11:28:21;27.90;55.20
14577;DHT22;7375;46.072;14.470;2022-07-18T11:31:00;27.90;55.30
14577;DHT22;7375;46.072;14.470;2022-07-18T11:33:28;27.80;55.30
14577;DHT22;7375;46.072;14.470;2022-07-18T11:36:01;27.80;55.30
14577;DHT22;7375;46.072;14.470;2022-07-18T11:38:28;27.80;55.40
14577;DHT22;7375;46.072;14.470;2022-07-18T11:40:55;27.70;55.40
14577;DHT22;7375;46.072;14.470;2022-07-18T11:43:22;27.70;55.40
14577;DHT22;7375;46.072;14.470;2022-07-18T11:45:59;27.70;55.50
14577;DHT22;7375;46.072;14.470;2022-07-18T11:48:26;27.70;55.60
14577;DHT22;7375;46.072;14.470;2022-07-18T11:50:53;27.70;55.70
14577;DHT22;7375;46.072;14.470;2022-07-18T11:53:20;27.60;55.60
14577;DHT22;7375;46.072;14.470;2022-07-18T11:55:47;27.60;55.60
14577;DHT22;7375;46.072;14.470;2022-07-18T11:58:17;27.60;55.70
14577;DHT22;7375;46.072;14.470;2022-07-18T12:00:44;27.60;55.80
14577;DHT22;7375;46.072;14.470;2022-07-18T12:03:14;27.60;55.80
14577;DHT22;7375;46.072;14.470;2022-07-18T12:05:41;27.50;55.80
14577;DHT22;7375;46.072;14.470;2022-07-18T12:08:24;27.50;55.90
14577;DHT22;7375;46.072;14.470;2022-07-18T12:11:02;27.50;56.00
14577;DHT22;7375;46.072;14.470;2022-07-18T12:13:38;27.50;56.00
14577;DHT22;7375;46.072;14.470;2022-07-18T12:16:05;27.50;56.00
14577;DHT22;7375;46.072;14.470;2022-07-18T12:18:36;27.50;56.00
14577;DHT22;7375;46.072;14.470;2022-07-18T12:21:06;27.50;56.10
14577;DHT22;7375;46.072;14.470;2022-07-18T12:23:33;27.50;56.10
14577;DHT22;7375;46.072;14.470;2022-07-18T12:26:00;27.40;56.10
14577;DHT22;7375;46.072;14.470;2022-07-18T12:28:28;27.40;56.20
14577;DHT22;7375;46.072;14.470;2022-07-18T12:30:57;27.40;56.20
14577;DHT22;7375;46.072;14.470;2022-07-18T12:33:25;27.40;56.20
14577;DHT22;7375;46.072;14.470;2022-07-18T12:35:57;27.40;56.20
14577;DHT22;7375;46.072;14.470;2022-07-18T12:38:27;27.40;56.30
14577;DHT22;7375;46.072;14.470;2022-07-18T12:40:58;27.40;56.30
14577;DHT22;7375;46.072;14.470;2022-07-18T12:43:27;27.40;56.40
14577;DHT22;7375;46.072;14.470;2022-07-18T12:45:54;27.30;56.30
14577;DHT22;7375;46.072;14.470;2022-07-18T12:48:22;27.30;56.30
14577;DHT22;7375;46.072;14.470;2022-07-18T12:50:55;27.30;56.40
14577;DHT22;7375;46.072;14.470;2022-07-18T12:53:23;27.30;56.50
14577;DHT22;7375;46.072;14.470;2022-07-18T12:55:50;27.30;56.50
14577;DHT22;7375;46.072;14.470;2022-07-18T12:58:17;27.30;56.50
14577;DHT22;7375;46.072;14.470;2022-07-18T13:00:44;27.30;56.60
14577;DHT22;7375;46.072;14.470;2022-07-18T13:03:15;27.30;56.60
14577;DHT22;7375;46.072;14.470;2022-07-18T13:05:41;27.20;56.50
14577;DHT22;7375;46.072;14.470;2022-07-18T13:08:08;27.20;56.60
14577;DHT22;7375;46.072;14.470;2022-07-18T13:10:38;27.20;56.60
14577;DHT22;7375;46.072;14.470;2022-07-18T13:13:06;27.20;56.60
14577;DHT22;7375;46.072;14.470;2022-07-18T13:15:33;27.20;56.60
14577;DHT22;7375;46.072;14.470;2022-07-18T13:18:02;27.20;56.70
14577;DHT22;7375;46.072;14.470;2022-07-18T13:20:29;27.20;56.70
14577;DHT22;7375;46.072;14.470;2022-07-18T13:22:56;27.20;56.70
14577;DHT22;7375;46.072;14.470;2022-07-18T13:25:26;27.20;56.80
14577;DHT22;7375;46.072;14.470;2022-07-18T13:27:55;27.20;56.80
14577;DHT22;7375;46.072;14.470;2022-07-18T13:30:21;27.20;57.30
14577;DHT22;7375;46.072;14.470;2022-07-18T13:32:48;27.10;56.70
14577;DHT22;7375;46.072;14.470;2022-07-18T13:35:15;27.20;56.80
14577;DHT22;7375;46.072;14.470;2022-07-18T13:37:42;27.10;56.80
14577;DHT22;7375;46.072;14.470;2022-07-18T13:40:09;27.10;56.80
14577;DHT22;7375;46.072;14.470;2022-07-18T13:42:37;27.10;56.80
14577;DHT22;7375;46.072;14.470;2022-07-18T13:45:06;27.10;56.80
14577;DHT22;7375;46.072;14.470;2022-07-18T13:47:33;27.10;56.80
14577;DHT22;7375;46.072;14.470;2022-07-18T13:50:00;27.10;56.80
14577;DHT22;7375;46.072;14.470;2022-07-18T13:52:27;27.10;56.80
14577;DHT22;7375;46.072;14.470;2022-07-18T13:54:53;27.10;56.80
14577;DHT22;7375;46.072;14.470;2022-07-18T13:57:20;27.10;56.90
14577;DHT22;7375;46.072;14.470;2022-07-18T13:59:47;27.10;56.90
14577;DHT22;7375;46.072;14.470;2022-07-18T14:02:15;27.10;56.90
14577;DHT22;7375;46.072;14.470;2022-07-18T14:04:42;27.10;56.90
14577;DHT22;7375;46.072;14.470;2022-07-18T14:07:11;27.10;56.90
14577;DHT22;7375;46.072;14.470;2022-07-18T14:09:42;27.10;56.90
14577;DHT22;7375;46.072;14.470;2022-07-18T14:12:09;27.10;56.90
14577;DHT22;7375;46.072;14.470;2022-07-18T14:14:36;27.10;56.90
14577;DHT22;7375;46.072;14.470;2022-07-18T14:17:03;27.10;57.00
14577;DHT22;7375;46.072;14.470;2022-07-18T14:19:31;27.10;56.90
14577;DHT22;7375;46.072;14.470;2022-07-18T14:21:58;27.10;57.00
14577;DHT22;7375;46.072;14.470;2022-07-18T14:24:25;27.10;57.00
14577;DHT22;7375;46.072;14.470;2022-07-18T14:26:52;27.10;57.00
14577;DHT22;7375;46.072;14.470;2022-07-18T14:29:20;27.10;57.00
14577;DHT22;7375;46.072;14.470;2022-07-18T14:31:46;27.10;57.00
14577;DHT22;7375;46.072;14.470;2022-07-18T14:34:13;27.00;57.00
14577;DHT22;7375;46.072;14.470;2022-07-18T14:36:41;27.00;57.00
14577;DHT22;7375;46.072;14.470;2022-07-18T14:39:08;27.00;57.00
14577;DHT22;7375;46.072;14.470;2022-07-18T14:41:34;27.00;57.00
14577;DHT22;7375;46.072;14.470;2022-07-18T14:44:01;27.00;57.00
14577;DHT22;7375;46.072;14.470;2022-07-18T14:46:28;27.00;57.00
14577;DHT22;7375;46.072;14.470;2022-07-18T14:48:55;27.00;57.00
14577;DHT22;7375;46.072;14.470;2022-07-18T14:51:24;27.00;57.10
14577;DHT22;7375;46.072;14.470;2022-07-18T14:53:53;27.00;57.00
14577;DHT22;7375;46.072;14.470;2022-07-18T14:56:19;27.00;57.00
14577;DHT22;7375;46.072;14.470;2022-07-18T14:58:46;27.00;57.10
14577;DHT22;7375;46.072;14.470;2022-07-18T15:01:13;27.00;57.10
14577;DHT22;7375;46.072;14.470;2022-07-18T15:03:41;27.00;57.10
14577;DHT22;7375;46.072;14.470;2022-07-18T15:06:11;27.00;57.10
14577;DHT22;7375;46.072;14.470;2022-07-18T15:08:38;27.00;57.10
14577;DHT22;7375;46.072;14.470;2022-07-18T15:11:06;27.00;57.10
14577;DHT22;7375;46.072;14.470;2022-07-18T15:13:33;27.00;57.10
14577;DHT22;7375;46.072;14.470;2022-07-18T15:16:00;27.00;57.10
14577;DHT22;7375;46.072;14.470;2022-07-18T15:18:27;27.00;57.10
14577;DHT22;7375;46.072;14.470;2022-07-18T15:20:53;27.00;57.10
14577;DHT22;7375;46.072;14.470;2022-07-18T15:23:20;27.00;57.10
14577;DHT22;7375;46.072;14.470;2022-07-18T15:25:47;27.00;57.10
14577;DHT22;7375;46.072;14.470;2022-07-18T15:28:18;27.00;57.10
14577;DHT22;7375;46.072;14.470;2022-07-18T15:30:48;27.00;57.10
14577;DHT22;7375;46.072;14.470;2022-07-18T15:33:15;27.00;57.10
14577;DHT22;7375;46.072;14.470;2022-07-18T15:35:42;27.00;57.20
14577;DHT22;7375;46.072;14.470;2022-07-18T15:38:09;27.00;57.20